Time;durP1;ratioP1;P1;durP2;ratioP2;P2;SDS_P1;SDS_P2;PMS_P1;PMS_P2;Temp;Humidity;BMP_temperature;BMP_pressure;BME280_temperature;BME280_humidity;BME280_pressure;Samples;Min_cycle;Max_cycle;Signal;HPM_P1;HPM_P2
2022/07/09 00:02:11;;;;;;;5.13;2.70;;;;;;;15.50;80.81;100686.66;5092195;28;20028;-84
2022/07/09 00:04:36;;;;;;;6.40;3.10;;;;;;;15.54;80.98;100681.72;5091202;28;20538;-79
2022/07/09 00:07:02;;;;;;;4.50;2.95;;;;;;;15.49;81.04;100685.06;5090353;28;20039;-85
2022/07/09 00:09:28;;;;;;;6.47;2.90;;;;;;;15.45;81.73;100669.66;5091227;28;20016;-85
2022/07/09 00:11:53;;;;;;;8.05;3.40;;;;;;;15.40;82.31;100682.22;5090913;28;20107;-84
2022/07/09 00:14:19;;;;;;;7.93;3.80;;;;;;;15.39;82.42;100675.06;5092048;28;20040;-84
2022/07/09 00:16:45;;;;;;;5.78;3.08;;;;;;;15.38;82.37;100679.06;5090899;28;20105;-84
2022/07/09 00:19:10;;;;;;;6.20;2.88;;;;;;;15.34;82.98;100672.84;5088998;28;20520;-84
2022/07/09 00:21:36;;;;;;;4.90;3.15;;;;;;;15.29;83.46;100674.19;5091222;28;20511;-84
2022/07/09 00:24:01;;;;;;;5.95;2.88;;;;;;;15.25;84.02;100686.72;5089887;28;20020;-79
2022/07/09 00:26:27;;;;;;;5.38;3.13;;;;;;;15.24;83.87;100685.19;5090594;28;20031;-79
2022/07/09 00:28:52;;;;;;;5.30;3.53;;;;;;;15.24;84.33;100680.38;5089897;28;20040;-79
2022/07/09 00:31:18;;;;;;;6.82;2.80;;;;;;;15.19;84.34;100688.56;5091055;28;20038;-79
2022/07/09 00:33:43;;;;;;;6.10;3.55;;;;;;;15.18;84.92;100689.78;5090573;28;20032;-79
2022/07/09 00:36:09;;;;;;;6.45;3.25;;;;;;;15.15;85.31;100688.69;5090040;28;20383;-79
2022/07/09 00:38:34;;;;;;;5.63;3.42;;;;;;;15.14;85.65;100689.13;5089139;28;20042;-80
2022/07/09 00:41:01;;;;;;;6.20;3.30;;;;;;;15.12;85.47;100694.41;5089788;28;20409;-79
2022/07/09 00:43:27;;;;;;;7.22;3.40;;;;;;;15.11;85.32;100698.41;5092087;28;20048;-79
2022/07/09 00:45:52;;;;;;;5.38;3.38;;;;;;;15.14;85.78;100698.28;5091814;28;20039;-79
2022/07/09 00:48:19;;;;;;;5.25;3.15;;;;;;;15.11;85.51;100692.84;5090520;28;20093;-80
2022/07/09 00:50:45;;;;;;;5.18;3.58;;;;;;;15.11;85.23;100687.25;5088870;28;20024;-79
2022/07/09 00:53:12;;;;;;;5.45;3.25;;;;;;;15.11;85.50;100690.03;5091276;28;20035;-79
2022/07/09 00:55:38;;;;;;;6.78;3.40;;;;;;;15.06;86.01;100696.97;5088272;28;20512;-79
2022/07/09 00:58:04;;;;;;;4.95;3.60;;;;;;;15.02;86.39;100687.94;5088413;28;20054;-80
2022/07/09 01:03:28;;;;;;;5.13;3.60;;;;;;;14.98;86.39;100683.69;4116295;22;20049;-82
2022/07/09 01:05:56;;;;;;;5.32;3.70;;;;;;;14.99;86.07;100679.69;5046134;28;20033;-81
2022/07/09 01:08:22;;;;;;;5.68;3.67;;;;;;;14.98;86.10;100678.13;5049124;28;20037;-81
2022/07/09 01:10:48;;;;;;;7.55;3.95;;;;;;;14.94;86.72;100673.44;5047528;28;20079;-81
2022/07/09 01:13:14;;;;;;;7.20;3.33;;;;;;;14.85;86.92;100664.97;5047786;28;20086;-83
2022/07/09 01:15:40;;;;;;;6.47;3.83;;;;;;;14.84;87.09;100674.56;5051251;28;20433;-82
2022/07/09 01:18:05;;;;;;;6.05;3.80;;;;;;;14.85;87.30;100676.13;5050062;28;20436;-80
2022/07/09 01:20:31;;;;;;;5.53;3.80;;;;;;;14.80;86.84;100668.31;5045325;28;20059;-81
2022/07/09 01:22:58;;;;;;;5.88;3.67;;;;;;;14.81;87.63;100669.88;5050242;28;20029;-82
2022/07/09 01:25:36;;;;;;;6.40;3.85;;;;;;;14.78;87.67;100664.44;5050423;28;20047;-82
2022/07/09 01:28:05;;;;;;;7.85;3.90;;;;;;;14.74;87.54;100664.56;5045418;28;20125;-82
2022/07/09 01:30:31;;;;;;;7.05;4.07;;;;;;;14.64;88.32;100654.50;5049237;28;20039;-83
2022/07/09 01:32:57;;;;;;;7.22;3.67;;;;;;;14.66;88.43;100654.84;5046359;28;20028;-82
2022/07/09 01:35:23;;;;;;;5.15;3.60;;;;;;;14.70;88.61;100663.09;5045967;28;20532;-81
2022/07/09 01:37:48;;;;;;;6.22;3.97;;;;;;;14.66;88.86;100654.84;5036896;28;20033;-81
2022/07/09 01:40:14;;;;;;;4.97;3.80;;;;;;;14.75;88.26;100659.75;5041212;28;20542;-80
2022/07/09 01:42:39;;;;;;;8.25;4.03;;;;;;;14.71;88.34;100648.72;5043389;28;20038;-79
2022/07/09 01:45:06;;;;;;;7.85;4.28;;;;;;;14.62;89.08;100668.16;5042940;28;20387;-81
2022/07/09 01:47:31;;;;;;;6.25;3.80;;;;;;;14.60;89.94;100665.00;5041808;28;20028;-79
2022/07/09 01:49:57;;;;;;;4.90;3.65;;;;;;;14.58;90.03;100664.69;5044431;28;20039;-79
2022/07/09 01:52:23;;;;;;;6.78;3.58;;;;;;;14.57;90.35;100660.34;5045386;28;20363;-78
2022/07/09 01:54:48;;;;;;;7.22;4.18;;;;;;;14.56;90.40;100653.19;5044125;28;20033;-78
2022/07/09 01:57:14;;;;;;;9.48;4.95;;;;;;;14.62;90.22;100665.34;5042753;28;20034;-77
2022/07/09 01:59:40;;;;;;;6.90;4.25;;;;;;;14.63;89.84;100652.97;5040365;28;20037;-77
2022/07/09 02:02:05;;;;;;;8.10;4.10;;;;;;;14.59;90.66;100659.91;5049699;28;20363;-78
2022/07/09 02:04:31;;;;;;;7.07;3.92;;;;;;;14.58;90.18;100661.91;5048642;28;20045;-78
2022/07/09 02:06:57;;;;;;;6.93;3.83;;;;;;;14.55;90.42;100662.03;5031879;28;20037;-77
2022/07/09 02:09:23;;;;;;;6.20;4.00;;;;;;;14.46;91.07;100655.13;5049581;28;20038;-78
2022/07/09 02:11:49;;;;;;;6.43;4.10;;;;;;;14.53;90.64;100650.50;5042268;28;20040;-78
2022/07/09 02:14:15;;;;;;;7.95;3.85;;;;;;;14.43;91.03;100658.03;5032378;28;20033;-78
2022/07/09 02:16:40;;;;;;;6.60;4.30;;;;;;;14.40;91.37;100650.53;5050545;28;20056;-81
2022/07/09 02:19:06;;;;;;;6.88;4.18;;;;;;;14.48;91.32;100658.22;5048075;28;20102;-78
2022/07/09 02:21:32;;;;;;;6.07;4.13;;;;;;;14.46;91.18;100659.91;5046290;28;20009;-78
2022/07/09 02:23:58;;;;;;;7.63;4.50;;;;;;;14.43;91.63;100658.03;5048437;28;20449;-78
2022/07/09 02:26:29;;;;;;;6.30;3.90;;;;;;;14.44;91.40;100640.81;5053426;28;20028;-79
2022/07/09 02:28:58;;;;;;;7.05;4.20;;;;;;;14.41;91.58;100652.09;5049099;28;20047;-79
2022/07/09 02:31:23;;;;;;;7.50;4.20;;;;;;;14.38;91.81;100662.16;5046339;28;20166;-77
2022/07/09 02:33:49;;;;;;;6.88;4.70;;;;;;;14.37;92.02;100657.00;5048704;28;20119;-77
2022/07/09 02:36:15;;;;;;;7.80;4.70;;;;;;;14.33;91.90;100659.09;5048173;28;20031;-77
2022/07/09 02:38:40;;;;;;;7.70;4.40;;;;;;;14.35;92.04;100654.69;5049056;28;20118;-77
2022/07/09 02:41:06;;;;;;;6.38;4.38;;;;;;;14.33;91.87;100668.25;5048208;28;20028;-79
2022/07/09 02:43:32;;;;;;;6.20;4.28;;;;;;;14.32;91.98;100663.13;5048404;28;20036;-79
2022/07/09 02:45:58;;;;;;;6.57;4.05;;;;;;;14.32;92.21;100661.13;5045733;28;20551;-77
2022/07/09 02:48:25;;;;;;;6.40;4.20;;;;;;;14.24;92.45;100659.78;5046768;28;20029;-77
2022/07/09 02:50:50;;;;;;;5.50;3.90;;;;;;;14.20;93.13;100666.69;5048641;28;20119;-77
2022/07/09 02:53:16;;;;;;;8.05;4.57;;;;;;;14.20;93.14;100664.69;5047673;28;20119;-79
2022/07/09 02:55:41;;;;;;;5.72;4.40;;;;;;;14.18;92.85;100658.00;5048143;28;20044;-77
2022/07/09 02:58:07;;;;;;;6.90;4.10;;;;;;;14.19;93.48;100654.00;5047317;28;20074;-77
2022/07/09 03:00:32;;;;;;;7.05;4.10;;;;;;;14.19;93.08;100654.78;5046123;28;20662;-77
2022/07/09 03:02:58;;;;;;;7.03;4.28;;;;;;;14.16;93.36;100652.06;5047306;28;20041;-78
2022/07/09 03:05:24;;;;;;;7.30;4.20;;;;;;;13.96;94.87;100650.28;5046996;28;20056;-78
2022/07/09 03:07:50;;;;;;;8.07;4.28;;;;;;;13.94;95.46;100663.13;5047733;28;20039;-78
2022/07/09 03:10:15;;;;;;;8.48;4.40;;;;;;;13.93;95.21;100656.78;5045526;28;20044;-78
2022/07/09 03:12:41;;;;;;;5.80;4.70;;;;;;;13.91;95.86;100659.22;5046823;28;20037;-77
2022/07/09 03:15:07;;;;;;;7.65;4.18;;;;;;;13.89;95.88;100656.09;5046920;28;20492;-77
2022/07/09 03:17:33;;;;;;;7.43;5.07;;;;;;;13.77;96.46;100642.91;5048745;28;20418;-78
2022/07/09 03:19:59;;;;;;;6.88;4.50;;;;;;;13.84;96.42;100648.28;5050607;28;20025;-78
2022/07/09 03:22:25;;;;;;;9.60;4.95;;;;;;;13.85;96.19;100655.41;5051471;28;20047;-77
2022/07/09 03:24:50;;;;;;;7.78;4.60;;;;;;;13.85;96.35;100658.22;5051694;28;20494;-77
2022/07/09 03:27:16;;;;;;;7.55;4.35;;;;;;;13.89;95.60;100638.56;5052556;28;20103;-78
2022/07/09 03:29:42;;;;;;;7.30;4.65;;;;;;;13.86;96.14;100657.00;5052377;28;20045;-78
2022/07/09 03:32:07;;;;;;;7.35;4.00;;;;;;;13.90;95.60;100657.66;5051219;28;20033;-78
2022/07/09 03:34:33;;;;;;;6.95;4.50;;;;;;;13.91;95.41;100658.44;5051903;28;20036;-78
2022/07/09 03:36:59;;;;;;;8.10;4.45;;;;;;;13.90;96.22;100657.66;5051893;28;20390;-77
2022/07/09 03:39:25;;;;;;;10.10;4.63;;;;;;;13.91;95.68;100664.78;5051364;28;20413;-77
2022/07/09 03:41:51;;;;;;;6.40;4.50;;;;;;;13.92;95.51;100660.00;5052626;28;20025;-78
2022/07/09 03:44:16;;;;;;;6.63;4.25;;;;;;;13.90;96.27;100668.03;5047283;28;20029;-78
2022/07/09 03:46:42;;;;;;;6.43;4.47;;;;;;;13.90;96.13;100660.44;5050722;28;20521;-78
2022/07/09 03:49:08;;;;;;;7.10;4.38;;;;;;;13.96;96.01;100667.03;5051099;28;20033;-78
2022/07/09 03:51:33;;;;;;;6.22;4.45;;;;;;;13.95;96.97;100654.31;5051127;28;20025;-79
2022/07/09 03:53:59;;;;;;;7.88;4.30;;;;;;;13.99;96.52;100662.59;5050098;28;20509;-80
2022/07/09 03:56:24;;;;;;;6.72;4.30;;;;;;;14.06;95.12;100658.78;5052773;28;20110;-80
2022/07/09 03:58:50;;;;;;;8.60;4.68;;;;;;;14.08;95.65;100667.47;5052364;28;20044;-81
2022/07/09 04:01:15;;;;;;;5.80;3.92;;;;;;;14.11;95.17;100672.19;5048288;28;20036;-81
2022/07/09 04:03:41;;;;;;;7.95;4.20;;;;;;;14.11;95.66;100661.81;5050899;28;20048;-81
2022/07/09 04:06:07;;;;;;;5.05;3.88;;;;;;;14.13;95.16;100659.34;5051559;28;20078;-81
2022/07/09 04:08:32;;;;;;;7.25;4.13;;;;;;;14.15;95.01;100664.50;5050277;28;20017;-81
2022/07/09 04:10:58;;;;;;;5.93;3.75;;;;;;;14.16;95.34;100669.59;5047845;28;20067;-80
2022/07/09 04:13:23;;;;;;;8.95;4.20;;;;;;;14.18;95.16;100667.16;5050643;28;20835;-81
2022/07/09 04:15:49;;;;;;;8.13;4.22;;;;;;;14.15;95.46;100661.69;5048233;28;20036;-81
2022/07/09 04:18:17;;;;;;;7.20;3.95;;;;;;;14.23;95.43;100674.19;5049633;28;20035;-81
2022/07/09 04:20:43;;;;;;;8.10;4.05;;;;;;;14.26;94.98;100676.09;5049283;28;20073;-81
2022/07/09 04:23:09;;;;;;;11.43;4.35;;;;;;;14.32;95.07;100668.69;5049699;28;20474;-81
2022/07/09 04:25:35;;;;;;;6.10;4.20;;;;;;;14.35;94.95;100667.84;5052050;28;20032;-81
2022/07/09 04:28:00;;;;;;;5.28;3.78;;;;;;;14.40;94.84;100670.84;5049863;28;20697;-81
2022/07/09 04:30:26;;;;;;;10.50;4.10;;;;;;;14.47;94.63;100667.06;5049269;28;20816;-78
2022/07/09 04:32:52;;;;;;;6.38;3.90;;;;;;;14.48;94.38;100661.00;5051402;28;20037;-78
2022/07/09 04:35:18;;;;;;;6.38;3.83;;;;;;;14.55;94.40;100656.44;5047995;28;20091;-79
2022/07/09 04:37:43;;;;;;;5.95;3.72;;;;;;;14.63;94.02;100658.56;5051432;28;20478;-78
2022/07/09 04:40:09;;;;;;;8.13;4.15;;;;;;;14.73;93.35;100657.41;5050110;28;20486;-78
2022/07/09 04:42:35;;;;;;;6.03;3.70;;;;;;;14.78;93.26;100654.03;5050196;28;20017;-78
2022/07/09 04:45:01;;;;;;;8.50;3.70;;;;;;;14.86;93.01;100658.16;5049448;28;20379;-78
2022/07/09 04:47:26;;;;;;;5.53;3.50;;;;;;;14.93;92.47;100660.69;5051290;28;20033;-78
2022/07/09 04:49:52;;;;;;;5.93;3.65;;;;;;;15.00;91.65;100659.69;5051601;28;20033;-78
2022/07/09 04:52:19;;;;;;;10.20;4.15;;;;;;;15.09;90.75;100656.16;5049411;28;20017;-78
2022/07/09 04:54:45;;;;;;;7.40;3.72;;;;;;;15.16;90.93;100662.31;5050030;28;20449;-78
2022/07/09 04:57:11;;;;;;;6.20;3.60;;;;;;;15.23;90.34;100661.25;5031572;28;20040;-78
2022/07/09 04:59:37;;;;;;;6.28;3.70;;;;;;;15.33;90.58;100654.50;5049051;28;20402;-78
2022/07/09 05:02:02;;;;;;;7.57;3.47;;;;;;;15.46;90.10;100652.41;5047749;28;20122;-78
2022/07/09 05:04:28;;;;;;;7.22;3.70;;;;;;;15.55;89.06;100663.69;5048658;28;20520;-78
2022/07/09 05:06:54;;;;;;;6.93;3.20;;;;;;;15.56;88.95;100651.28;5052132;28;20044;-79
2022/07/09 05:09:19;;;;;;;6.40;3.65;;;;;;;15.77;88.85;100656.06;5049915;28;20833;-80
2022/07/09 05:11:45;;;;;;;7.30;3.33;;;;;;;15.79;87.59;100655.59;5046674;28;20475;-80
2022/07/09 05:14:10;;;;;;;6.85;3.95;;;;;;;15.89;86.99;100650.84;5050368;28;20036;-80
2022/07/09 05:16:36;;;;;;;7.30;3.60;;;;;;;16.02;86.52;100659.91;5049502;28;20041;-80
2022/07/09 05:19:02;;;;;;;7.90;3.40;;;;;;;16.08;86.50;100653.28;5013137;28;20041;-80
2022/07/09 05:21:28;;;;;;;8.07;3.67;;;;;;;16.27;85.57;100654.13;5048808;28;20162;-81
2022/07/09 05:23:53;;;;;;;8.57;3.60;;;;;;;16.35;85.44;100658.19;5045795;28;20051;-81
2022/07/09 05:26:19;;;;;;;8.25;4.15;;;;;;;16.49;84.62;100654.81;5023530;28;20036;-81
2022/07/09 05:28:44;;;;;;;4.78;3.30;;;;;;;16.70;84.49;100656.00;5047898;28;20033;-82
2022/07/09 05:31:10;;;;;;;5.97;3.30;;;;;;;16.77;83.42;100656.47;5048917;28;20083;-81
2022/07/09 05:33:35;;;;;;;8.77;4.05;;;;;;;16.99;83.94;100652.72;5048520;28;20394;-81
2022/07/09 05:36:01;;;;;;;7.32;4.03;;;;;;;17.11;82.46;100646.19;5050428;28;20112;-82
2022/07/09 05:38:26;;;;;;;5.65;3.22;;;;;;;17.33;81.37;100649.63;5050352;28;20033;-82
2022/07/09 05:40:52;;;;;;;5.57;3.42;;;;;;;17.40;80.82;100645.72;5048156;28;20719;-82
2022/07/09 05:43:17;;;;;;;8.68;3.70;;;;;;;17.23;80.55;100629.22;5045322;28;20394;-82
2022/07/09 05:45:43;;;;;;;5.30;3.30;;;;;;;17.48;80.21;100638.53;5047107;28;20119;-82
2022/07/09 05:48:09;;;;;;;7.28;3.35;;;;;;;17.58;79.08;100632.47;5045587;28;20122;-82
2022/07/09 05:50:34;;;;;;;8.57;3.35;;;;;;;17.74;79.11;100641.78;5046598;28;20493;-82
2022/07/09 05:53:00;;;;;;;7.30;3.33;;;;;;;17.76;77.85;100631.63;5044497;28;20565;-82
2022/07/09 05:55:25;;;;;;;8.90;3.38;;;;;;;18.04;77.17;100629.50;5048308;28;20037;-83
2022/07/09 05:57:51;;;;;;;8.05;3.40;;;;;;;18.39;75.95;100636.22;5046854;28;20041;-82
2022/07/09 06:00:16;;;;;;;5.35;3.28;;;;;;;18.38;75.29;100626.25;5028415;28;20406;-82
2022/07/09 06:02:42;;;;;;;6.95;3.03;;;;;;;18.49;74.17;100626.47;5046561;28;20086;-82
2022/07/09 06:05:08;;;;;;;6.85;3.30;;;;;;;18.52;73.25;100614.31;5045309;28;20087;-82
2022/07/09 06:07:33;;;;;;;5.90;3.08;;;;;;;18.56;72.99;100626.16;5046822;28;20140;-82
2022/07/09 06:09:59;;;;;;;5.95;3.08;;;;;;;18.80;73.44;100633.81;5039910;28;20037;-82
2022/07/09 06:12:24;;;;;;;6.15;3.08;;;;;;;18.95;73.19;100626.97;5041234;28;20029;-82
2022/07/09 06:14:50;;;;;;;5.35;3.05;;;;;;;19.28;71.75;100629.66;5036100;28;20568;-82
2022/07/09 06:17:15;;;;;;;5.53;3.30;;;;;;;19.30;70.80;100634.78;5040698;28;20048;-82
2022/07/09 06:19:41;;;;;;;5.57;2.92;;;;;;;19.38;70.50;100633.94;5044414;28;20045;-82
2022/07/09 06:22:06;;;;;;;6.70;3.10;;;;;;;19.39;69.24;100629.88;5041027;28;20413;-82
2022/07/09 06:24:32;;;;;;;7.85;3.35;;;;;;;19.65;69.10;100635.75;5041136;28;20037;-81
2022/07/09 06:26:57;;;;;;;9.48;3.38;;;;;;;19.66;67.38;100628.06;5046989;28;20506;-79
2022/07/09 06:29:23;;;;;;;5.50;3.38;;;;;;;19.63;68.28;100621.38;5046217;28;20040;-78
2022/07/09 06:31:48;;;;;;;5.85;2.95;;;;;;;19.76;67.56;100635.94;5030555;28;20033;-79
2022/07/09 06:34:14;;;;;;;6.20;2.85;;;;;;;19.83;67.17;100615.81;5046085;28;20045;-79
2022/07/09 06:36:44;;;;;;;7.88;3.13;;;;;;;19.84;65.98;100625.06;5047040;28;20548;-79
2022/07/09 06:42:01;;;;;;;6.03;2.97;;;;;;;20.13;65.34;100616.56;5031824;28;20052;-79
2022/07/09 06:44:27;;;;;;;7.07;2.93;;;;;;;20.38;64.48;100615.91;5046389;28;20120;-79
2022/07/09 06:46:52;;;;;;;5.40;2.78;;;;;;;20.59;64.61;100622.34;5046835;28;20438;-78
2022/07/09 06:49:18;;;;;;;6.00;2.80;;;;;;;20.34;63.49;100629.44;5046304;28;20504;-79
2022/07/09 06:51:43;;;;;;;7.35;3.08;;;;;;;20.35;64.82;100628.19;5046209;28;20125;-78
2022/07/09 06:54:09;;;;;;;7.07;2.97;;;;;;;20.59;62.84;100632.84;5043572;28;20139;-78
2022/07/09 06:56:34;;;;;;;7.72;2.78;;;;;;;20.44;63.16;100625.25;5040644;28;20506;-79
2022/07/09 06:59:00;;;;;;;7.25;2.70;;;;;;;20.71;62.71;100635.34;5039598;28;20056;-79
2022/07/09 07:01:25;;;;;;;5.15;3.00;;;;;;;20.84;61.86;100623.72;5037599;28;20468;-79
2022/07/09 07:03:51;;;;;;;8.43;3.00;;;;;;;20.53;62.08;100627.16;5047696;28;20056;-78
2022/07/09 07:06:16;;;;;;;4.85;2.70;;;;;;;20.44;61.94;100639.31;5048302;28;20036;-78
2022/07/09 07:08:42;;;;;;;6.43;3.15;;;;;;;20.60;62.27;100640.03;5039767;28;20037;-78
2022/07/09 07:11:07;;;;;;;8.85;3.05;;;;;;;20.29;63.23;100627.34;5037623;28;20040;-78
2022/07/09 07:13:33;;;;;;;6.80;2.78;;;;;;;20.83;62.32;100636.25;5038935;28;20025;-78
2022/07/09 07:15:58;;;;;;;7.40;2.88;;;;;;;20.91;62.17;100631.72;5040729;28;20426;-78
2022/07/09 07:18:24;;;;;;;7.10;2.90;;;;;;;21.06;61.75;100631.66;5047966;28;20072;-78
2022/07/09 07:20:49;;;;;;;9.02;3.08;;;;;;;21.19;59.68;100630.03;5047842;28;20037;-78
2022/07/09 07:23:15;;;;;;;7.47;3.10;;;;;;;21.34;58.94;100629.97;5046954;28;20032;-78
2022/07/09 07:25:41;;;;;;;4.60;3.10;;;;;;;21.35;59.82;100632.25;5047215;28;20048;-78
2022/07/09 07:28:06;;;;;;;5.30;2.88;;;;;;;21.74;57.97;100632.66;5041886;28;20071;-78
2022/07/09 07:30:32;;;;;;;6.40;3.03;;;;;;;21.67;57.92;100640.81;5049624;28;20025;-78
2022/07/09 07:33:01;;;;;;;7.72;3.78;;;;;;;21.44;58.77;100627.72;5048781;28;20033;-78
2022/07/09 07:35:27;;;;;;;6.05;3.30;;;;;;;21.69;59.90;100622.09;5049476;28;20036;-78
2022/07/09 07:37:52;;;;;;;7.55;3.20;;;;;;;21.54;58.50;100629.13;5049011;28;20151;-78
2022/07/09 07:40:18;;;;;;;6.72;2.90;;;;;;;21.61;57.89;100637.91;5039148;28;20025;-79
2022/07/09 07:42:43;;;;;;;7.95;3.20;;;;;;;21.61;58.72;100635.09;5049497;28;20029;-78
2022/07/09 07:45:10;;;;;;;6.13;2.95;;;;;;;21.93;57.54;100629.50;5048934;28;20075;-79
2022/07/09 07:47:35;;;;;;;5.47;2.75;;;;;;;21.88;57.51;100628.13;5049287;28;20036;-79
2022/07/09 07:50:01;;;;;;;6.88;2.80;;;;;;;21.96;59.37;100626.44;5048104;28;20493;-79
2022/07/09 07:52:26;;;;;;;4.90;2.75;;;;;;;22.16;56.89;100615.03;5048484;28;20542;-79
2022/07/09 07:54:52;;;;;;;5.57;2.63;;;;;;;22.17;57.15;100616.56;5049146;28;20036;-79
2022/07/09 07:57:17;;;;;;;4.90;2.58;;;;;;;22.04;57.82;100612.66;5049051;28;20052;-79
2022/07/09 07:59:43;;;;;;;7.57;2.70;;;;;;;22.35;57.91;100614.66;5048532;28;20497;-79
2022/07/09 08:02:08;;;;;;;5.72;2.50;;;;;;;22.39;57.54;100609.53;5051830;28;20057;-79
2022/07/09 08:04:34;;;;;;;7.85;2.63;;;;;;;22.20;56.57;100621.22;5050809;28;20398;-79
2022/07/09 08:06:59;;;;;;;5.65;2.58;;;;;;;21.70;57.96;100622.84;5051807;28;20037;-79
2022/07/09 08:09:25;;;;;;;6.28;2.85;;;;;;;21.69;60.22;100622.09;5052613;28;20112;-79
2022/07/09 08:11:50;;;;;;;5.15;2.50;;;;;;;21.95;60.25;100610.78;5052692;28;20474;-79
2022/07/09 08:14:16;;;;;;;6.22;2.50;;;;;;;21.66;59.39;100611.78;5052094;28;20136;-79
2022/07/09 08:16:42;;;;;;;3.95;2.30;;;;;;;22.02;58.43;100610.31;5052951;28;20041;-79
2022/07/09 08:19:07;;;;;;;4.68;2.30;;;;;;;22.16;57.51;100609.38;5052437;28;20082;-79
2022/07/09 08:21:33;;;;;;;5.10;2.40;;;;;;;22.33;57.62;100607.44;5053114;28;20033;-82
2022/07/09 08:24:00;;;;;;;4.35;2.30;;;;;;;22.49;57.96;100605.97;5050650;28;20108;-82
2022/07/09 08:26:27;;;;;;;3.45;2.10;;;;;;;22.38;57.93;100599.50;5052446;28;20036;-82
2022/07/09 08:28:53;;;;;;;3.40;2.28;;;;;;;22.27;56.93;100595.34;5052236;28;20124;-82
2022/07/09 08:31:20;;;;;;;3.63;2.60;;;;;;;21.58;58.71;100609.91;5047441;28;20116;-81
2022/07/09 08:33:46;;;;;;;4.47;2.30;;;;;;;21.25;61.36;100613.97;5041783;28;20029;-81
2022/07/09 08:36:12;;;;;;;6.70;2.70;;;;;;;21.01;61.28;100613.41;5041632;28;20033;-82
2022/07/09 08:38:37;;;;;;;6.65;2.28;;;;;;;21.02;60.26;100598.03;5043637;28;20029;-81
2022/07/09 08:41:06;;;;;;;4.43;2.40;;;;;;;20.92;61.13;100605.09;5042078;28;20028;-81
2022/07/09 08:43:36;;;;;;;4.90;2.30;;;;;;;20.85;62.90;100599.88;5043617;28;20032;-81
2022/07/09 08:46:02;;;;;;;7.65;4.50;;;;;;;21.07;62.50;100600.13;5043875;28;20083;-81
2022/07/09 08:48:28;;;;;;;4.75;2.20;;;;;;;21.65;61.37;100601.00;5043208;28;20033;-81
2022/07/09 08:50:55;;;;;;;4.55;2.38;;;;;;;22.19;59.34;100597.09;5044787;28;20037;-82
2022/07/09 08:53:20;;;;;;;5.00;2.30;;;;;;;22.36;57.87;100602.06;5050591;28;20048;-82
2022/07/09 08:55:46;;;;;;;5.05;2.20;;;;;;;21.90;58.53;100603.00;5051236;28;20429;-81
2022/07/09 08:58:13;;;;;;;4.55;2.50;;;;;;;21.77;59.40;100588.50;5051630;28;20037;-82
2022/07/09 09:00:39;;;;;;;7.88;2.35;;;;;;;21.88;59.80;100600.66;5050412;28;20017;-82
2022/07/09 09:03:05;;;;;;;4.25;2.25;;;;;;;22.44;58.61;100591.84;5045074;28;20045;-82
2022/07/09 09:05:31;;;;;;;3.88;2.28;;;;;;;23.09;55.56;100593.38;5043535;28;20033;-81
2022/07/09 09:07:57;;;;;;;5.63;2.20;;;;;;;22.89;52.18;100604.91;5041819;28;20501;-82
2022/07/09 09:10:24;;;;;;;6.18;2.40;;;;;;;23.09;50.75;100604.72;5046463;28;20029;-81
2022/07/09 09:13:01;;;;;;;4.40;1.85;;;;;;;22.85;50.37;100590.22;5045466;28;20112;-80
2022/07/09 09:15:27;;;;;;;7.28;2.20;;;;;;;22.86;52.00;100597.44;5041025;28;20504;-81
2022/07/09 09:17:53;;;;;;;4.30;2.13;;;;;;;23.21;51.15;100594.97;5044744;28;20056;-81
2022/07/09 09:20:19;;;;;;;5.43;1.90;;;;;;;23.54;51.31;100585.00;5050941;28;20108;-81
2022/07/09 09:22:45;;;;;;;4.22;2.28;;;;;;;23.65;50.79;100588.63;5050449;28;20116;-81
2022/07/09 09:25:21;;;;;;;4.90;2.30;;;;;;;23.56;51.20;100580.38;5050783;28;20807;-81
2022/07/09 09:27:54;;;;;;;3.78;2.00;;;;;;;23.64;50.77;100577.81;5044786;28;20525;-81
2022/07/09 09:30:20;;;;;;;5.28;2.00;;;;;;;24.00;48.89;100573.94;5050519;28;20047;-81
2022/07/09 09:33:03;;;;;;;3.72;1.90;;;;;;;24.39;46.93;100570.25;5051578;28;20112;-82
2022/07/09 09:35:30;;;;;;;4.30;2.00;;;;;;;24.57;46.89;100570.47;5049443;28;20403;-79
2022/07/09 09:37:56;;;;;;;3.53;1.92;;;;;;;24.26;46.24;100558.72;5051175;28;20041;-78
2022/07/09 09:40:22;;;;;;;4.60;1.95;;;;;;;23.92;47.75;100570.06;5050433;28;20033;-79
2022/07/09 09:42:48;;;;;;;5.50;1.92;;;;;;;23.85;47.29;100562.09;5050884;28;20033;-79
2022/07/09 09:45:15;;;;;;;3.55;1.80;;;;;;;23.63;48.20;100562.09;5050444;28;20033;-78
2022/07/09 09:47:45;;;;;;;4.55;1.83;;;;;;;23.65;47.74;100559.53;5049129;28;20052;-78
2022/07/09 09:50:13;;;;;;;3.92;1.90;;;;;;;23.85;47.05;100556.44;5050648;28;20025;-78
2022/07/09 09:52:40;;;;;;;3.13;2.10;;;;;;;24.36;48.21;100542.94;5049465;28;20024;-79
2022/07/09 09:55:06;;;;;;;3.08;2.00;;;;;;;23.88;46.49;100554.63;5050609;28;20151;-79
2022/07/09 09:57:32;;;;;;;4.28;1.90;;;;;;;23.71;47.87;100548.97;5048645;28;20036;-79
2022/07/09 09:59:57;;;;;;;4.03;2.25;;;;;;;23.65;47.99;100545.38;5050764;28;20037;-78
2022/07/09 10:02:24;;;;;;;4.38;2.00;;;;;;;23.23;48.87;100557.66;5050702;28;20033;-79
2022/07/09 10:04:50;;;;;;;4.78;1.92;;;;;;;23.57;49.44;100541.53;5049329;28;20090;-79
2022/07/09 10:07:16;;;;;;;3.80;2.00;;;;;;;23.92;48.68;100527.56;5050529;28;20029;-79
2022/07/09 10:09:52;;;;;;;3.80;2.20;;;;;;;23.90;49.11;100546.38;5048565;28;20466;-78
2022/07/09 10:12:25;;;;;;;4.60;2.10;;;;;;;24.35;47.33;100530.06;5045779;28;20064;-79
2022/07/09 10:14:51;;;;;;;4.60;1.90;;;;;;;24.87;47.83;100525.19;5049642;28;20029;-81
2022/07/09 10:17:17;;;;;;;5.80;2.17;;;;;;;24.96;45.85;100527.72;5049959;28;20560;-81
2022/07/09 10:19:54;;;;;;;5.40;1.80;;;;;;;24.63;47.36;100525.03;5050334;28;20033;-81
2022/07/09 10:22:20;;;;;;;3.70;1.85;;;;;;;24.49;45.63;100520.47;5049375;28;20091;-82
2022/07/09 10:24:48;;;;;;;3.28;1.70;;;;;;;24.85;45.31;100521.34;5044761;28;20398;-81
2022/07/09 10:27:14;;;;;;;3.80;1.90;;;;;;;24.61;43.83;100527.63;5041773;28;20611;-81
2022/07/09 10:29:54;;;;;;;3.20;1.90;;;;;;;24.80;44.63;100514.38;5041018;28;20041;-81
2022/07/09 10:32:31;;;;;;;4.28;2.10;;;;;;;25.47;44.49;100516.78;5041308;28;20040;-82
2022/07/09 10:34:58;;;;;;;3.45;1.70;;;;;;;25.46;42.61;100518.84;5041760;28;20045;-82
2022/07/09 10:37:35;;;;;;;3.17;1.60;;;;;;;24.58;43.13;100508.84;5024288;28;20139;-82
2022/07/09 10:40:11;;;;;;;4.40;1.92;;;;;;;24.05;45.18;100522.13;5037003;28;20178;-82
2022/07/09 10:42:37;;;;;;;2.92;1.70;;;;;;;23.68;44.97;100507.53;5037917;28;20025;-81
2022/07/09 10:45:04;;;;;;;4.68;1.60;;;;;;;23.34;45.73;100511.59;5026036;28;20396;-82
2022/07/09 10:47:39;;;;;;;3.15;1.73;;;;;;;23.38;47.00;100503.63;5039674;28;20494;-81
2022/07/09 10:50:05;;;;;;;3.75;1.85;;;;;;;24.12;46.31;100509.50;5042330;28;20570;-82
2022/07/09 10:52:31;;;;;;;4.50;2.00;;;;;;;24.67;43.85;100513.44;5049755;28;20409;-81
2022/07/09 10:54:56;;;;;;;4.30;1.73;;;;;;;24.41;43.56;100505.28;5049064;28;20036;-82
2022/07/09 10:57:22;;;;;;;2.88;1.48;;;;;;;24.91;45.60;100507.91;5049845;28;20482;-82
2022/07/09 10:59:47;;;;;;;2.55;1.70;;;;;;;25.10;44.22;100499.53;5048802;28;20029;-82
2022/07/09 11:02:23;;;;;;;4.03;1.70;;;;;;;24.91;44.38;100508.66;5053435;28;20466;-82
2022/07/09 11:04:52;;;;;;;4.15;1.60;;;;;;;25.21;44.41;100505.13;5049785;28;20037;-82
2022/07/09 11:07:22;;;;;;;3.70;1.58;;;;;;;25.76;40.95;100498.97;5049557;28;20603;-83
2022/07/09 11:09:47;;;;;;;3.45;1.60;;;;;;;25.26;42.40;100492.94;5049165;28;20033;-82
2022/07/09 11:12:20;;;;;;;3.42;1.35;;;;;;;25.17;42.66;100496.09;5048839;28;20113;-79
2022/07/09 11:14:47;;;;;;;3.92;1.70;;;;;;;25.51;42.20;100492.47;5047427;28;20033;-79
2022/07/09 11:17:18;;;;;;;2.33;1.40;;;;;;;25.58;39.78;100496.84;5049193;28;20036;-79
2022/07/09 11:19:43;;;;;;;3.42;1.50;;;;;;;25.34;41.82;100488.22;5048142;28;20055;-79
2022/07/09 11:22:09;;;;;;;3.03;1.50;;;;;;;25.82;41.78;100482.66;5049310;28;20029;-79
2022/07/09 11:24:34;;;;;;;3.75;1.45;;;;;;;26.14;39.60;100484.88;5048805;28;20391;-79
2022/07/09 11:27:06;;;;;;;1.98;1.33;;;;;;;26.08;39.37;100479.28;5047338;28;20486;-79